Time;durP1;ratioP1;P1;durP2;ratioP2;P2;SDS_P1;SDS_P2;PMS_P1;PMS_P2;Temp;Humidity;BMP_temperature;BMP_pressure;BME280_temperature;BME280_humidity;BME280_pressure;Samples;Min_cycle;Max_cycle;Signal;HPM_P1;HPM_P2
2022/04/02 00:02:01;;;;;;;9.98;4.78;;;;;;;0.66;100.00;98102.31;5111284;28;20043;-58
2022/04/02 00:04:27;;;;;;;9.07;4.65;;;;;;;0.74;100.00;98098.03;5110913;28;20480;-58
2022/04/02 00:06:54;;;;;;;6.57;4.47;;;;;;;0.76;100.00;98115.44;5111229;28;20048;-59
2022/04/02 00:09:21;;;;;;;7.93;4.10;;;;;;;0.75;100.00;98078.00;5110648;28;20059;-58
2022/04/02 00:11:47;;;;;;;9.77;5.70;;;;;;;0.64;100.00;98070.28;5110941;28;20051;-59
2022/04/02 00:14:14;;;;;;;10.73;4.85;;;;;;;0.74;100.00;98063.75;5110638;28;20043;-59
2022/04/02 00:16:40;;;;;;;7.18;4.30;;;;;;;0.78;100.00;98045.78;5110812;28;20048;-59
2022/04/02 00:19:07;;;;;;;6.50;4.22;;;;;;;0.80;100.00;98037.34;5110389;28;20426;-58
2022/04/02 00:21:33;;;;;;;10.50;4.95;;;;;;;0.75;100.00;98016.75;5110981;28;20112;-59
2022/04/02 00:24:00;;;;;;;6.63;4.30;;;;;;;0.79;100.00;98019.59;5110789;28;20051;-59
2022/04/02 00:26:27;;;;;;;6.38;4.50;;;;;;;0.83;100.00;97986.22;5110535;28;20047;-59
2022/04/02 00:28:53;;;;;;;6.38;4.70;;;;;;;0.84;100.00;97981.63;5110793;28;20047;-59
2022/04/02 00:31:21;;;;;;;10.32;4.60;;;;;;;0.81;100.00;97966.88;5110037;28;20069;-59
2022/04/02 00:33:48;;;;;;;4.63;3.63;;;;;;;0.75;100.00;97943.91;5110796;28;20101;-58
2022/04/02 00:36:16;;;;;;;6.72;4.75;;;;;;;0.80;100.00;97956.41;5110633;28;20051;-59
2022/04/02 00:38:43;;;;;;;4.47;3.30;;;;;;;0.87;100.00;97927.00;5110026;28;20058;-59
2022/04/02 00:41:10;;;;;;;8.68;4.80;;;;;;;0.86;100.00;97920.78;5110355;28;20059;-58
2022/04/02 00:43:39;;;;;;;7.00;5.03;;;;;;;0.96;100.00;97921.50;5110305;28;20047;-58
2022/04/02 00:46:07;;;;;;;6.28;4.20;;;;;;;0.87;100.00;97906.22;5109904;28;20047;-58
2022/04/02 00:48:33;;;;;;;6.25;4.63;;;;;;;0.87;100.00;97879.22;5110693;28;20055;-59
2022/04/02 00:51:02;;;;;;;6.80;5.10;;;;;;;0.87;100.00;97860.34;5110200;28;20101;-59
2022/04/02 00:53:31;;;;;;;5.93;4.10;;;;;;;0.97;100.00;97840.25;5110233;28;20044;-58
2022/04/02 00:55:59;;;;;;;9.75;4.63;;;;;;;0.91;100.00;97814.59;5110461;28;20482;-59
2022/04/02 00:58:25;;;;;;;7.82;3.75;;;;;;;0.85;100.00;97778.94;5110129;28;20058;-59
2022/04/02 01:00:52;;;;;;;6.00;3.78;;;;;;;1.00;100.00;97774.00;5110606;28;20059;-59
2022/04/02 01:03:20;;;;;;;5.97;4.10;;;;;;;0.96;100.00;97749.59;5110001;28;20055;-58
2022/04/02 01:05:47;;;;;;;5.22;3.90;;;;;;;0.92;100.00;97719.81;5110309;28;20502;-58
2022/04/02 01:08:13;;;;;;;6.28;4.80;;;;;;;0.89;100.00;97693.50;5110155;28;20054;-59
2022/04/02 01:10:40;;;;;;;6.35;4.60;;;;;;;0.86;100.00;97687.97;5109835;28;20055;-59
2022/04/02 01:13:06;;;;;;;7.28;4.30;;;;;;;0.82;100.00;97679.78;5109640;28;20055;-59
2022/04/02 01:15:33;;;;;;;6.05;4.13;;;;;;;0.83;100.00;97662.47;5109995;28;20498;-59
2022/04/02 01:18:00;;;;;;;5.90;4.57;;;;;;;0.93;100.00;97648.53;5110202;28;20108;-59
2022/04/02 01:20:28;;;;;;;5.47;3.53;;;;;;;0.91;100.00;97644.59;5101487;28;20052;-58
2022/04/02 01:22:55;;;;;;;7.80;4.85;;;;;;;0.94;100.00;97616.94;5110164;28;20059;-59
2022/04/02 01:25:21;;;;;;;4.85;3.78;;;;;;;0.97;100.00;97583.06;5109913;28;20059;-58
2022/04/02 01:27:48;;;;;;;6.93;3.80;;;;;;;1.00;100.00;97577.00;5109939;28;20048;-59
2022/04/02 01:30:15;;;;;;;5.13;3.90;;;;;;;1.00;100.00;97544.63;5109333;28;20096;-59
2022/04/02 01:32:42;;;;;;;6.45;4.40;;;;;;;1.08;100.00;97549.91;5109832;28;20043;-59
2022/04/02 01:35:10;;;;;;;8.30;4.72;;;;;;;1.03;100.00;97508.84;5109797;28;20047;-58
2022/04/02 01:37:37;;;;;;;9.70;4.97;;;;;;;0.93;100.00;97505.53;5109820;28;20074;-59
2022/04/02 01:40:06;;;;;;;5.57;4.18;;;;;;;0.96;100.00;97509.44;5109939;28;20056;-59
2022/04/02 01:42:33;;;;;;;6.95;3.80;;;;;;;0.85;100.00;97521.84;5109604;28;20047;-59
2022/04/02 01:45:00;;;;;;;6.05;4.00;;;;;;;0.88;100.00;97567.03;5109873;28;20048;-59
2022/04/02 01:47:26;;;;;;;7.20;4.47;;;;;;;0.75;100.00;97574.34;5109276;28;20062;-59
2022/04/02 01:49:52;;;;;;;5.80;4.45;;;;;;;0.60;100.00;97626.25;5110934;28;20472;-59
2022/04/02 01:52:20;;;;;;;5.65;4.00;;;;;;;0.53;100.00;97683.44;5112956;28;20051;-58
2022/04/02 01:54:47;;;;;;;7.85;4.60;;;;;;;0.50;100.00;97759.66;5113379;28;20414;-59
2022/04/02 01:57:14;;;;;;;7.28;4.20;;;;;;;0.45;100.00;97806.47;5113173;28;20054;-59
2022/04/02 01:59:40;;;;;;;6.80;3.83;;;;;;;0.38;100.00;97838.56;5113361;28;20452;-59
2022/04/02 02:02:07;;;;;;;6.15;4.10;;;;;;;0.26;100.00;97860.06;5112914;28;20043;-58
2022/04/02 02:04:33;;;;;;;6.63;4.43;;;;;;;0.24;100.00;97881.19;5113049;28;20047;-59
2022/04/02 02:07:00;;;;;;;10.10;4.82;;;;;;;0.27;100.00;97926.34;5113037;28;20058;-59
2022/04/02 02:09:26;;;;;;;6.70;3.88;;;;;;;0.32;100.00;97939.63;5112951;28;20514;-58
2022/04/02 02:11:53;;;;;;;8.55;4.78;;;;;;;0.28;100.00;97946.78;5112998;28;20056;-59
2022/04/02 02:14:20;;;;;;;5.80;4.53;;;;;;;0.40;100.00;97967.63;5113016;28;20052;-59
2022/04/02 02:16:46;;;;;;;7.78;4.07;;;;;;;0.41;100.00;97963.84;5112842;28;20450;-58
2022/04/02 02:19:12;;;;;;;3.80;2.88;;;;;;;0.34;100.00;97942.00;5112794;28;20063;-59
2022/04/02 02:21:38;;;;;;;4.93;3.85;;;;;;;0.27;100.00;97936.31;5112948;28;20044;-59
2022/04/02 02:24:05;;;;;;;6.47;3.80;;;;;;;0.28;100.00;97946.78;5112528;28;20059;-59
2022/04/02 02:26:31;;;;;;;8.18;4.45;;;;;;;0.28;100.00;97946.78;5112650;28;20050;-58
2022/04/02 02:28:57;;;;;;;5.40;4.28;;;;;;;0.23;100.00;97930.78;5112447;28;20052;-58
2022/04/02 02:31:24;;;;;;;4.43;3.08;;;;;;;0.18;100.00;97937.16;5112115;28;20048;-59
2022/04/02 02:36:46;;;;;;;8.60;4.53;;;;;;;0.15;100.00;97942.44;5049539;28;20049;-59
2022/04/02 02:39:12;;;;;;;7.40;4.47;;;;;;;0.21;100.00;97938.44;5097347;28;20422;-59
2022/04/02 02:41:39;;;;;;;7.10;4.18;;;;;;;0.28;100.00;97956.78;5112505;28;20051;-59
2022/04/02 02:44:05;;;;;;;6.10;3.65;;;;;;;0.22;100.00;97931.91;5112404;28;20048;-58
2022/04/02 02:46:33;;;;;;;8.18;4.43;;;;;;;0.28;100.00;97946.00;5112291;28;20067;-58
2022/04/02 02:49:00;;;;;;;7.13;3.95;;;;;;;0.31;100.00;97924.56;5112484;28;20093;-58
2022/04/02 02:51:26;;;;;;;7.75;4.78;;;;;;;0.35;100.00;97933.56;5112125;28;20047;-59
2022/04/02 02:53:52;;;;;;;6.80;4.25;;;;;;;0.43;100.00;97937.31;5112492;28;20117;-59
2022/04/02 02:56:19;;;;;;;8.65;4.70;;;;;;;0.51;100.00;97941.09;5112005;28;20059;-59
2022/04/02 02:58:45;;;;;;;7.95;4.05;;;;;;;0.54;100.00;97943.91;5112323;28;20054;-59
2022/04/02 03:01:11;;;;;;;5.95;3.60;;;;;;;0.48;100.00;97923.66;5111642;28;20063;-59
2022/04/02 03:03:38;;;;;;;9.52;4.50;;;;;;;0.36;100.00;97923.56;5111970;28;20056;-58
2022/04/02 03:06:04;;;;;;;6.72;4.10;;;;;;;0.27;100.00;97950.59;5112213;28;20417;-59
2022/04/02 03:08:31;;;;;;;9.95;5.10;;;;;;;0.23;100.00;97963.94;5112225;28;20048;-59
2022/04/02 03:10:57;;;;;;;8.02;5.10;;;;;;;0.24;100.00;97964.72;5112044;28;20047;-59
2022/04/02 03:13:24;;;;;;;6.53;4.32;;;;;;;0.13;100.00;97982.38;5111843;28;20101;-59
2022/04/02 03:15:51;;;;;;;7.97;4.93;;;;;;;0.19;100.00;97978.38;5112322;28;20085;-59
2022/04/02 03:18:17;;;;;;;7.72;4.72;;;;;;;0.10;100.00;98002.69;5112012;28;20048;-59
2022/04/02 03:20:44;;;;;;;5.45;4.55;;;;;;;0.14;100.00;98008.22;5112096;28;20055;-59
2022/04/02 03:23:11;;;;;;;7.85;5.20;;;;;;;0.06;100.00;98022.50;5111521;28;20105;-59
2022/04/02 03:25:38;;;;;;;8.30;5.28;;;;;;;0.01;100.00;98018.09;5111615;28;20052;-58
2022/04/02 03:28:05;;;;;;;8.02;4.50;;;;;;;0.00;100.00;98038.09;5111611;28;20130;-59
2022/04/02 03:30:31;;;;;;;10.38;5.30;;;;;;;-0.04;100.00;98029.84;5110931;28;20506;-59
2022/04/02 03:32:58;;;;;;;7.28;4.63;;;;;;;0.13;100.00;98015.50;5111620;28;20490;-58
2022/04/02 03:35:25;;;;;;;10.57;5.45;;;;;;;0.03;100.00;98031.25;5111362;28;20052;-59
2022/04/02 03:37:53;;;;;;;11.45;5.25;;;;;;;-0.10;100.00;98019.56;5111670;28;20491;-59
2022/04/02 03:40:22;;;;;;;8.60;5.97;;;;;;;-0.10;100.00;98022.25;5111688;28;20058;-59
2022/04/02 03:42:49;;;;;;;10.63;5.75;;;;;;;-0.13;100.00;97999.47;5111807;28;20047;-59
2022/04/02 03:45:17;;;;;;;11.73;6.57;;;;;;;-0.09;100.00;97995.00;5111393;28;20077;-59
2022/04/02 03:47:44;;;;;;;9.48;5.65;;;;;;;-0.03;100.00;97982.94;5111559;28;20048;-58
2022/04/02 03:50:11;;;;;;;11.10;5.60;;;;;;;-0.09;100.00;97978.84;5111259;28;20430;-58
2022/04/02 03:52:38;;;;;;;11.15;5.35;;;;;;;-0.11;100.00;97970.28;5111459;28;20044;-58
2022/04/02 03:55:06;;;;;;;12.70;6.35;;;;;;;-0.13;100.00;97964.44;5111291;28;20047;-59
2022/04/02 03:57:34;;;;;;;8.48;5.40;;;;;;;-0.11;100.00;97953.31;5111106;28;20056;-58
2022/04/02 04:00:00;;;;;;;14.38;5.97;;;;;;;-0.03;100.00;97947.13;5111310;28;20391;-59
2022/04/02 04:02:26;;;;;;;10.57;6.45;;;;;;;-0.18;100.00;97943.06;5111133;28;20063;-59
2022/04/02 04:04:52;;;;;;;11.77;6.82;;;;;;;-0.09;100.00;97949.19;5111513;28;20078;-59
2022/04/02 04:07:19;;;;;;;10.50;6.05;;;;;;;-0.17;100.00;97930.38;5110897;28;20059;-58
2022/04/02 04:09:45;;;;;;;9.65;6.13;;;;;;;-0.20;100.00;97921.06;5111353;28;20054;-59
2022/04/02 04:12:14;;;;;;;12.35;6.65;;;;;;;-0.22;100.00;97917.88;5109882;28;20055;-58
2022/04/02 04:14:40;;;;;;;13.55;6.32;;;;;;;-0.16;100.00;97897.75;5111407;28;20055;-58
2022/04/02 04:17:06;;;;;;;11.18;6.72;;;;;;;-0.22;100.00;97890.16;5110813;28;20070;-58
2022/04/02 04:19:33;;;;;;;13.55;6.10;;;;;;;-0.29;100.00;97872.63;5111009;28;20059;-59
2022/04/02 04:21:59;;;;;;;12.32;6.50;;;;;;;-0.21;100.00;97876.38;5110809;28;20506;-59
2022/04/02 04:24:25;;;;;;;13.32;5.55;;;;;;;-0.26;100.00;97857.72;5110738;28;20052;-59
2022/04/02 04:26:51;;;;;;;11.57;6.43;;;;;;;-0.20;100.00;97852.91;5110663;28;20044;-58
2022/04/02 04:29:18;;;;;;;13.43;6.57;;;;;;;-0.25;100.00;97854.69;5110329;28;20050;-58
2022/04/02 04:31:45;;;;;;;9.70;5.03;;;;;;;-0.20;100.00;97848.34;5110261;28;20048;-59
2022/04/02 04:34:11;;;;;;;12.40;6.85;;;;;;;-0.16;100.00;97843.09;5110578;28;20461;-58
2022/04/02 04:36:37;;;;;;;9.43;6.32;;;;;;;0.03;100.00;97832.63;5110593;28;20085;-58
2022/04/02 04:39:05;;;;;;;14.23;6.55;;;;;;;-0.01;100.00;97840.59;5110329;28;20051;-60
2022/04/02 04:41:31;;;;;;;14.27;7.20;;;;;;;-0.09;100.00;97837.97;5110682;28;20047;-59
2022/04/02 04:43:58;;;;;;;11.38;6.22;;;;;;;-0.20;100.00;97845.66;5110412;28;20494;-59
2022/04/02 04:46:25;;;;;;;11.98;6.30;;;;;;;-0.27;100.00;97838.06;5110682;28;20047;-59
2022/04/02 04:48:51;;;;;;;13.13;6.75;;;;;;;-0.22;100.00;97829.00;5110443;28;20472;-58
2022/04/02 04:51:18;;;;;;;10.45;6.63;;;;;;;-0.25;100.00;97805.41;5110719;28;20507;-58
2022/04/02 04:53:45;;;;;;;12.73;5.85;;;;;;;-0.26;100.00;97812.72;5110517;28;20762;-59
2022/04/02 04:56:11;;;;;;;12.95;6.68;;;;;;;-0.25;100.00;97802.72;5110239;28;20116;-59
2022/04/02 04:58:37;;;;;;;13.05;6.38;;;;;;;-0.18;100.00;97803.00;5110640;28;20358;-59
2022/04/02 05:01:04;;;;;;;12.90;5.68;;;;;;;-0.05;100.00;97801.94;5110360;28;20051;-58
2022/04/02 05:03:32;;;;;;;10.98;5.97;;;;;;;-0.03;100.00;97804.34;5110529;28;20054;-59
2022/04/02 05:05:59;;;;;;;8.43;5.07;;;;;;;-0.02;100.00;97805.91;5110235;28;20418;-59
2022/04/02 05:08:25;;;;;;;12.02;5.80;;;;;;;-0.01;100.00;97810.94;5110617;28;20078;-59
2022/04/02 05:10:52;;;;;;;9.35;5.38;;;;;;;-0.01;100.00;97820.94;5109895;28;20066;-58
2022/04/02 05:13:19;;;;;;;7.80;5.40;;;;;;;-0.16;100.00;97837.69;5110320;28;20054;-58
2022/04/02 05:15:46;;;;;;;8.68;5.47;;;;;;;-0.18;100.00;97842.63;5109830;28;20504;-59
2022/04/02 05:18:13;;;;;;;12.70;5.70;;;;;;;-0.04;100.00;97838.53;5110161;28;20052;-59
2022/04/02 05:20:41;;;;;;;6.57;4.70;;;;;;;0.04;100.00;97842.31;5109933;28;20074;-59
2022/04/02 05:23:07;;;;;;;8.13;4.60;;;;;;;-0.08;100.00;97855.69;5110198;28;20138;-59
2022/04/02 05:25:34;;;;;;;7.50;4.85;;;;;;;0.03;100.00;97856.09;5113966;28;20058;-59
2022/04/02 05:28:04;;;;;;;7.03;3.83;;;;;;;0.03;100.00;97843.41;5113460;28;20047;-58
2022/04/02 05:30:31;;;;;;;8.05;4.90;;;;;;;0.06;100.00;97844.66;5113384;28;20051;-58
2022/04/02 05:32:57;;;;;;;7.72;4.00;;;;;;;0.09;100.00;97854.78;5113667;28;20471;-58
2022/04/02 05:35:24;;;;;;;9.88;4.97;;;;;;;0.16;100.00;97857.75;5113936;28;20377;-58
2022/04/02 05:37:51;;;;;;;7.32;4.70;;;;;;;0.13;100.00;97859.19;5113596;28;20059;-59
2022/04/02 05:40:17;;;;;;;12.82;4.93;;;;;;;0.14;100.00;97852.69;5113928;28;20361;-59
2022/04/02 05:42:45;;;;;;;8.48;4.55;;;;;;;-0.01;100.00;97862.13;5113552;28;20051;-59
2022/04/02 05:45:12;;;;;;;10.63;4.57;;;;;;;-0.15;100.00;97845.44;5113536;28;20047;-58
2022/04/02 05:47:42;;;;;;;5.25;3.75;;;;;;;-0.05;100.00;97838.88;5113794;28;20918;-58
2022/04/02 05:50:09;;;;;;;8.25;5.05;;;;;;;-0.13;100.00;97827.06;5112896;28;20059;-59
2022/04/02 05:52:36;;;;;;;12.63;5.47;;;;;;;-0.21;100.00;97838.66;5113173;28;20063;-58
2022/04/02 05:55:03;;;;;;;9.18;4.18;;;;;;;-0.08;100.00;97823.38;5113219;28;20101;-58
2022/04/02 05:57:30;;;;;;;10.50;4.80;;;;;;;0.00;100.00;97806.38;5113322;28;20047;-59
2022/04/02 05:59:57;;;;;;;8.35;4.65;;;;;;;0.10;100.00;97797.91;5112987;28;20146;-58
2022/04/02 06:02:23;;;;;;;5.57;3.88;;;;;;;0.08;100.00;97799.34;5113183;28;20490;-58
2022/04/02 06:04:49;;;;;;;7.35;3.35;;;;;;;0.21;100.00;97817.16;5112840;28;20044;-59
2022/04/02 06:07:15;;;;;;;7.18;4.60;;;;;;;0.07;100.00;97836.28;5112982;28;20051;-58
2022/04/02 06:09:43;;;;;;;5.75;4.10;;;;;;;-0.05;100.00;97846.97;5113050;28;20043;-58
2022/04/02 06:12:10;;;;;;;8.05;4.47;;;;;;;0.00;100.00;97838.72;5112967;28;20047;-58
2022/04/02 06:14:36;;;;;;;7.53;4.32;;;;;;;0.12;100.00;97816.41;5112944;28;20090;-58
2022/04/02 06:17:03;;;;;;;7.00;4.80;;;;;;;0.08;100.00;97599.94;5112800;28;20517;-59
2022/04/02 06:19:29;;;;;;;10.88;4.70;;;;;;;0.05;100.00;97458.59;5113122;28;20488;-59
2022/04/02 06:21:55;;;;;;;12.00;4.60;;;;;;;0.22;100.00;97387.50;5112874;28;20056;-59
2022/04/02 06:24:21;;;;;;;4.55;3.67;;;;;;;0.15;100.00;97346.88;5112989;28;20071;-59
2022/04/02 06:26:47;;;;;;;6.68;3.92;;;;;;;0.14;100.00;97324.53;5112600;28;20427;-59
2022/04/02 06:29:14;;;;;;;5.78;4.13;;;;;;;0.17;100.00;97321.16;5112571;28;20048;-59
2022/04/02 06:31:40;;;;;;;8.70;4.13;;;;;;;0.08;100.00;97325.09;5112054;28;20043;-59
2022/04/02 06:34:07;;;;;;;9.18;4.30;;;;;;;-0.03;100.00;97328.28;5112548;28;20105;-59
2022/04/02 06:36:33;;;;;;;6.38;4.10;;;;;;;0.01;100.00;97360.69;5111599;28;20062;-59
2022/04/02 06:38:59;;;;;;;5.75;4.18;;;;;;;-0.02;100.00;97381.03;5112535;28;20451;-59
2022/04/02 06:41:25;;;;;;;6.20;4.07;;;;;;;-0.16;100.00;97406.75;5112333;28;20062;-58
2022/04/02 06:43:52;;;;;;;4.80;3.67;;;;;;;-0.25;100.00;97463.41;5112354;28;20093;-59
2022/04/02 06:46:19;;;;;;;5.82;3.85;;;;;;;-0.10;100.00;97478.91;5112352;28;20109;-59
2022/04/02 06:48:45;;;;;;;13.98;4.15;;;;;;;-0.01;100.00;97517.28;5112159;28;20043;-58
2022/04/02 06:51:11;;;;;;;3.65;3.28;;;;;;;-0.16;100.00;97541.41;5111920;28;20047;-58
2022/04/02 06:53:37;;;;;;;7.75;3.35;;;;;;;-0.11;100.00;97598.53;5112098;28;20054;-58
2022/04/02 06:56:04;;;;;;;6.03;3.20;;;;;;;-0.05;100.00;97647.59;5112437;28;20067;-59
2022/04/02 06:58:34;;;;;;;6.30;3.90;;;;;;;-0.09;100.00;97693.28;5112074;28;20048;-59
2022/04/02 07:01:00;;;;;;;10.25;5.03;;;;;;;-0.06;100.00;97726.84;5112299;28;20054;-59
2022/04/02 07:03:27;;;;;;;4.40;3.40;;;;;;;-0.02;100.00;97757.41;5112114;28;20108;-59
2022/04/02 07:05:53;;;;;;;3.47;3.10;;;;;;;0.01;100.00;97793.69;5112161;28;20464;-59
2022/04/02 07:08:19;;;;;;;4.45;3.47;;;;;;;-0.04;100.00;97814.28;5111865;28;20060;-59
2022/04/02 07:10:45;;;;;;;4.65;3.60;;;;;;;0.14;100.00;97835.75;5111863;28;20051;-59
2022/04/02 07:13:12;;;;;;;5.75;3.45;;;;;;;0.16;100.00;97863.16;5111685;28;20461;-59
2022/04/02 07:15:39;;;;;;;9.38;3.65;;;;;;;0.15;100.00;97861.56;5111710;28;20062;-59
2022/04/02 07:18:07;;;;;;;6.22;3.30;;;;;;;0.27;100.00;97901.28;5111901;28;20062;-59
2022/04/02 07:20:36;;;;;;;5.95;4.00;;;;;;;0.28;100.00;97927.13;5111924;28;20533;-59
2022/04/02 07:23:03;;;;;;;5.70;2.92;;;;;;;0.08;100.00;97926.78;5112024;28;20053;-59
2022/04/02 07:25:29;;;;;;;14.63;3.67;;;;;;;0.10;100.00;97931.81;5111668;28;20506;-59
2022/04/02 07:27:57;;;;;;;5.90;3.13;;;;;;;0.19;100.00;97937.97;5111838;28;20499;-59
2022/04/02 07:30:24;;;;;;;7.28;3.30;;;;;;;0.22;100.00;97940.78;5111505;28;20138;-59
2022/04/02 07:32:51;;;;;;;4.10;3.05;;;;;;;0.16;100.00;97925.91;5111079;28;20102;-59
2022/04/02 07:35:18;;;;;;;7.15;3.65;;;;;;;0.21;100.00;97941.91;5111348;28;20043;-59
2022/04/02 07:37:59;;;;;;;4.00;3.33;;;;;;;0.25;100.00;97943.97;5111585;28;20050;-59
2022/04/02 07:40:30;;;;;;;6.50;3.05;;;;;;;0.26;100.00;97942.84;5093227;28;20501;-59
2022/04/02 07:43:05;;;;;;;4.90;3.05;;;;;;;0.19;100.00;97936.03;5111274;28;20506;-59
2022/04/02 07:45:39;;;;;;;3.47;2.67;;;;;;;0.18;100.00;97934.47;5110935;28;20051;-59
2022/04/02 07:48:09;;;;;;;7.53;2.90;;;;;;;0.15;100.00;97931.66;5109962;28;20425;-59
2022/04/02 07:50:40;;;;;;;4.95;2.80;;;;;;;0.12;100.00;97932.28;5111170;28;20047;-60
2022/04/02 07:53:16;;;;;;;5.47;3.03;;;;;;;-0.02;100.00;97911.75;5110818;28;20464;-60
2022/04/02 07:55:46;;;;;;;6.45;3.42;;;;;;;0.06;100.00;97922.81;5111393;28;20058;-60
2022/04/02 07:58:17;;;;;;;3.63;2.72;;;;;;;0.11;100.00;97928.81;5111329;28;20549;-59
2022/04/02 08:00:49;;;;;;;4.88;3.35;;;;;;;-0.11;100.00;97921.78;5111044;28;20063;-60
2022/04/02 08:03:17;;;;;;;3.08;2.78;;;;;;;0.03;100.00;97926.16;5110858;28;20043;-60
2022/04/02 08:05:44;;;;;;;4.72;3.22;;;;;;;0.11;100.00;97928.03;5110884;28;20426;-60
2022/04/02 08:08:18;;;;;;;3.97;2.92;;;;;;;0.11;100.00;97909.94;5111246;28;20142;-60
2022/04/02 08:10:46;;;;;;;4.35;2.47;;;;;;;0.35;100.00;97917.41;5093831;28;20051;-60
2022/04/02 08:13:15;;;;;;;4.97;2.80;;;;;;;0.27;100.00;97906.66;5110908;28;20091;-60
2022/04/02 08:15:42;;;;;;;5.35;2.78;;;;;;;0.16;100.00;97892.78;5110926;28;20466;-60
2022/04/02 08:18:10;;;;;;;4.93;2.42;;;;;;;0.27;100.00;97890.50;5111203;28;20593;-60
2022/04/02 08:20:38;;;;;;;3.83;2.95;;;;;;;0.31;100.00;97884.13;5110865;28;20048;-60
2022/04/02 08:23:05;;;;;;;3.50;2.15;;;;;;;0.38;100.00;97880.91;5110809;28;20052;-60
2022/04/02 08:25:38;;;;;;;5.00;2.70;;;;;;;0.34;100.00;97872.69;5110586;28;20177;-60
2022/04/02 08:28:12;;;;;;;6.93;2.83;;;;;;;0.30;100.00;97854.78;5092853;28;20047;-60
2022/04/02 08:30:45;;;;;;;4.10;2.38;;;;;;;0.40;100.00;97836.34;5110622;28;20047;-60
2022/04/02 08:33:37;;;;;;;6.15;2.83;;;;;;;0.36;100.00;97821.91;5110568;28;20806;-59
2022/04/02 08:36:15;;;;;;;4.60;3.17;;;;;;;0.38;100.00;97800.03;5110460;28;20101;-60
2022/04/02 08:38:52;;;;;;;4.63;3.22;;;;;;;0.32;100.00;97787.88;5110537;28;20454;-60
2022/04/02 08:42:06;;;;;;;5.40;2.55;;;;;;;0.25;100.00;97793.00;5110348;28;20055;-60
2022/04/02 08:45:08;;;;;;;5.07;2.45;;;;;;;0.24;100.00;97824.56;5110385;28;20522;-60
2022/04/02 08:48:20;;;;;;;3.40;2.70;;;;;;;0.22;100.00;97842.97;5110392;28;20048;-60
2022/04/02 08:50:49;;;;;;;10.32;2.72;;;;;;;0.19;100.00;97865.97;5077403;28;20100;-60
2022/04/02 08:53:19;;;;;;;6.13;3.22;;;;;;;0.26;100.00;97881.63;5110319;28;20494;-60
2022/04/02 08:55:50;;;;;;;4.53;2.47;;;;;;;0.20;100.00;97889.13;5110295;28;20060;-60
2022/04/02 08:58:28;;;;;;;6.32;3.42;;;;;;;0.28;100.00;97895.56;5109641;28;20090;-60
2022/04/02 09:01:04;;;;;;;5.13;2.33;;;;;;;0.34;100.00;97891.56;5110153;28;20059;-60
2022/04/02 09:04:02;;;;;;;5.97;2.63;;;;;;;0.31;100.00;97903.00;5110243;28;20052;-60
2022/04/02 09:07:01;;;;;;;6.10;2.75;;;;;;;0.28;100.00;97906.34;5110206;28;20054;-60
2022/04/02 09:09:48;;;;;;;8.32;3.08;;;;;;;0.22;100.00;97916.53;5110102;28;20047;-60
2022/04/02 09:12:40;;;;;;;3.45;3.00;;;;;;;0.03;100.00;97899.22;5110382;28;20050;-60
2022/04/02 09:15:12;;;;;;;18.92;3.08;;;;;;;0.31;100.00;97892.22;5110038;28;20048;-60
2022/04/02 09:17:48;;;;;;;4.88;3.30;;;;;;;0.43;100.00;97886.91;5110640;28;20047;-60
2022/04/02 09:20:54;;;;;;;6.32;3.03;;;;;;;0.55;100.00;97874.59;5110219;28;20056;-60
2022/04/02 09:23:38;;;;;;;10.65;3.25;;;;;;;0.49;100.00;97871.28;5047415;28;20455;-60
2022/04/02 09:26:43;;;;;;;7.07;3.17;;;;;;;0.45;100.00;97878.47;5047378;28;20527;-60
2022/04/02 09:29:15;;;;;;;6.15;2.83;;;;;;;0.50;100.00;97869.38;5047256;28;20049;-60
2022/04/02 09:32:31;;;;;;;3.55;2.38;;;;;;;0.44;100.00;97855.34;5046788;28;20053;-60
2022/04/02 09:35:44;;;;;;;3.40;2.30;;;;;;;0.42;100.00;97862.94;5046870;28;20110;-60
2022/04/02 09:38:37;;;;;;;5.75;3.22;;;;;;;0.47;100.00;97860.84;4968231;28;20530;-60
2022/04/02 09:41:17;;;;;;;5.45;3.13;;;;;;;0.52;100.00;97853.69;5042515;28;20083;-60
2022/04/02 09:43:55;;;;;;;9.73;3.70;;;;;;;0.62;100.00;97848.66;5046986;28;20459;-60
2022/04/02 09:46:48;;;;;;;6.97;3.83;;;;;;;0.88;100.00;97837.63;5047280;28;20069;-60
2022/04/02 09:49:23;;;;;;;5.15;3.47;;;;;;;1.05;100.00;97831.25;5046848;28;20067;-60
2022/04/02 09:51:57;;;;;;;3.05;2.63;;;;;;;1.01;100.00;97841.16;5046763;28;20536;-60
2022/04/02 09:54:30;;;;;;;5.22;3.30;;;;;;;1.04;100.00;97842.41;5086534;28;20225;-60
2022/04/02 09:57:05;;;;;;;4.07;3.30;;;;;;;0.99;100.00;97850.69;5109640;28;20051;-60
2022/04/02 09:59:42;;;;;;;6.03;3.55;;;;;;;0.94;100.00;97855.19;5102307;28;20288;-60
2022/04/02 10:02:22;;;;;;;5.15;2.92;;;;;;;0.99;100.00;97856.09;5109325;28;20134;-60
2022/04/02 10:04:54;;;;;;;5.68;3.40;;;;;;;1.06;100.00;97834.72;5109214;28;20051;-60
2022/04/02 10:07:30;;;;;;;6.85;3.67;;;;;;;1.09;100.00;97869.94;5109589;28;20091;-60
2022/04/02 10:09:58;;;;;;;5.97;3.55;;;;;;;1.10;100.00;97868.84;5109327;28;20047;-60
2022/04/02 10:12:27;;;;;;;6.20;3.35;;;;;;;1.21;100.00;97873.81;5112712;28;20048;-60
2022/04/02 10:14:58;;;;;;;5.93;3.30;;;;;;;1.35;100.00;97880.47;5112489;28;20051;-60
2022/04/02 10:17:28;;;;;;;5.45;3.05;;;;;;;1.36;100.00;97875.84;5112617;28;20054;-60
2022/04/02 10:19:57;;;;;;;4.97;2.88;;;;;;;1.28;100.00;97872.13;5112725;28;20051;-60
2022/04/02 10:22:36;;;;;;;4.30;3.15;;;;;;;1.09;100.00;97871.84;5112802;28;20528;-60
2022/04/02 10:25:07;;;;;;;9.10;3.97;;;;;;;1.15;100.00;97882.09;5112531;28;20477;-60
2022/04/02 10:27:35;;;;;;;8.30;3.60;;;;;;;1.30;100.00;97875.28;5112751;28;20052;-59
2022/04/02 10:30:09;;;;;;;6.90;3.97;;;;;;;1.50;100.00;97868.22;5111766;28;20087;-60
2022/04/02 10:32:54;;;;;;;4.72;3.17;;;;;;;1.59;100.00;97858.09;5112072;28;20086;-60
2022/04/02 10:35:24;;;;;;;4.75;3.65;;;;;;;1.68;100.00;97865.31;5112911;28;20547;-60
2022/04/02 10:38:05;;;;;;;7.30;3.58;;;;;;;1.64;100.00;97865.19;5112607;28;20079;-60
2022/04/02 10:40:33;;;;;;;5.13;3.58;;;;;;;1.48;100.00;97867.75;5112423;28;20399;-59
2022/04/02 10:43:04;;;;;;;5.55;3.67;;;;;;;1.53;100.00;97861.34;5112547;28;20066;-59
2022/04/02 10:45:40;;;;;;;5.28;3.67;;;;;;;1.46;100.00;97856.50;5112667;28;20052;-59
2022/04/02 10:48:09;;;;;;;6.25;3.63;;;;;;;1.41;100.00;97865.63;5112279;28;20043;-59
2022/04/02 10:50:38;;;;;;;5.22;3.13;;;;;;;1.54;100.00;97852.13;5112153;28;20051;-60
2022/04/02 10:53:05;;;;;;;6.72;3.55;;;;;;;1.56;100.00;97847.94;5112292;28;20055;-59
2022/04/02 10:55:42;;;;;;;6.97;3.28;;;;;;;1.70;100.00;97857.63;5112274;28;20051;-59
2022/04/02 10:58:12;;;;;;;3.88;3.13;;;;;;;1.81;100.00;97867.66;5111843;28;20086;-59
2022/04/02 11:00:44;;;;;;;4.70;2.92;;;;;;;1.96;100.00;97873.50;5112154;28;20134;-60
2022/04/02 11:03:20;;;;;;;5.03;3.58;;;;;;;2.06;100.00;97876.53;5111962;28;20087;-60
2022/04/02 11:05:48;;;;;;;6.07;3.40;;;;;;;1.87;100.00;97879.81;5112337;28;20048;-60
2022/04/02 11:08:14;;;;;;;5.47;3.92;;;;;;;1.73;100.00;97878.56;5112133;28;20459;-60
2022/04/02 11:10:47;;;;;;;4.18;3.60;;;;;;;1.85;100.00;97868.56;5112044;28;20058;-59
2022/04/02 11:13:28;;;;;;;5.80;3.55;;;;;;;1.81;100.00;97869.56;5112012;28;20048;-59
2022/04/02 11:15:55;;;;;;;6.75;3.70;;;;;;;1.95;100.00;97844.91;5111708;28;20047;-59
2022/04/02 11:18:22;;;;;;;5.85;3.90;;;;;;;1.82;100.00;97854.94;5112145;28;20051;-59
2022/04/02 11:21:01;;;;;;;6.32;3.15;;;;;;;1.80;100.00;97847.19;5111460;28;20147;-59
2022/04/02 11:23:45;;;;;;;4.38;3.70;;;;;;;1.90;100.00;97840.53;5111574;28;20528;-59
2022/04/02 11:26:12;;;;;;;;;;;;;;;2.00;100.00;97826.53;5112205;28;20422;-59
2022/04/02 11:28:44;;;;;;;6.20;3.50;;;;;;;1.85;100.00;97836.13;5111663;28;19930;-59
2022/04/02 11:31:13;;;;;;;5.57;3.67;;;;;;;1.81;100.00;97839.84;5111390;28;20055;-60
2022/04/02 11:33:50;;;;;;;6.75;4.05;;;;;;;1.82;100.00;97827.91;5111410;28;20047;-60
2022/04/02 11:36:23;;;;;;;5.57;3.97;;;;;;;2.01;100.00;97798.38;5112001;28;20517;-60
2022/04/02 11:38:57;;;;;;;4.38;3.42;;;;;;;1.98;100.00;97804.47;5111393;28;20048;-60
2022/04/02 11:41:27;;;;;;;4.75;3.47;;;;;;;1.96;100.00;97819.44;5111614;28;20052;-60
2022/04/02 11:44:05;;;;;;;6.63;2.95;;;;;;;1.91;100.00;97817.78;5111438;28;20047;-60
2022/04/02 11:46:53;;;;;;;5.63;3.63;;;;;;;1.97;100.00;97812.94;5111443;28;20051;-60